Time;durP1;ratioP1;P1;durP2;ratioP2;P2;SDS_P1;SDS_P2;PMS_P1;PMS_P2;Temp;Humidity;BMP_temperature;BMP_pressure;BME280_temperature;BME280_humidity;BME280_pressure;Samples;Min_cycle;Max_cycle;Signal;HPM_P1;HPM_P2
2023/09/21 00:01:06;;;;;;;1.85;1.40;;;21.10;99.90;;;;;;5055249;28;20189;-74
2023/09/21 00:03:38;;;;;;;2.42;1.42;;;21.10;99.90;;;;;;5055463;28;20185;-75
2023/09/21 00:06:05;;;;;;;3.35;1.40;;;21.00;99.90;;;;;;5053551;28;20316;-76
2023/09/21 00:08:34;;;;;;;2.85;1.60;;;21.00;99.90;;;;;;5053540;28;20189;-76
2023/09/21 00:11:00;;;;;;;1.90;1.50;;;21.00;99.90;;;;;;5055479;28;20182;-71
2023/09/21 00:13:55;;;;;;;2.60;1.40;;;20.90;99.90;;;;;;5055258;28;20469;-77
2023/09/21 00:16:26;;;;;;;1.88;1.67;;;21.00;99.90;;;;;;5055031;28;20276;-71
2023/09/21 00:18:57;;;;;;;1.75;1.40;;;20.90;99.90;;;;;;5052208;28;20255;-75
2023/09/21 00:21:22;;;;;;;1.80;1.50;;;20.90;99.90;;;;;;5053421;28;20193;-74
2023/09/21 00:23:48;;;;;;;3.92;1.75;;;20.80;99.90;;;;;;5055481;28;20238;-77
2023/09/21 00:26:14;;;;;;;1.75;1.38;;;20.80;99.90;;;;;;5055357;28;20188;-71
2023/09/21 00:28:41;;;;;;;2.38;1.60;;;20.70;99.90;;;;;;5055143;28;20209;-77
2023/09/21 00:31:06;;;;;;;1.98;1.48;;;20.70;99.90;;;;;;5055032;28;20241;-77
2023/09/21 00:33:36;;;;;;;2.33;1.55;;;20.70;99.90;;;;;;5053990;28;20189;-75
2023/09/21 00:36:09;;;;;;;2.72;1.50;;;20.70;99.90;;;;;;5053387;28;20982;-76
2023/09/21 00:38:34;;;;;;;3.50;1.40;;;20.60;99.90;;;;;;5038069;28;20229;-76
2023/09/21 00:41:02;;;;;;;2.78;1.52;;;20.60;99.90;;;;;;5055066;28;20232;-77
2023/09/21 00:43:28;;;;;;;4.43;1.50;;;20.60;99.90;;;;;;5054321;28;20178;-75
2023/09/21 00:45:59;;;;;;;1.75;1.25;;;20.60;99.90;;;;;;5054540;28;20188;-74
2023/09/21 00:48:31;;;;;;;1.73;1.42;;;20.50;99.90;;;;;;5054801;28;20225;-68
2023/09/21 00:51:01;;;;;;;1.70;1.40;;;20.50;99.90;;;;;;5055432;28;20261;-75
2023/09/21 00:53:30;;;;;;;2.33;1.30;;;20.50;99.90;;;;;;5052662;28;20253;-73
2023/09/21 00:56:02;;;;;;;1.67;1.25;;;20.50;99.90;;;;;;5055856;28;20240;-72
2023/09/21 00:58:29;;;;;;;1.80;1.40;;;20.40;99.90;;;;;;5053226;28;20227;-72
2023/09/21 01:00:56;;;;;;;1.80;1.30;;;20.40;99.90;;;;;;5056343;28;20268;-69
2023/09/21 01:03:28;;;;;;;2.42;1.50;;;20.40;99.90;;;;;;5053752;28;20204;-75
2023/09/21 01:05:54;;;;;;;2.03;1.38;;;20.40;99.90;;;;;;5054441;28;20181;-76
2023/09/21 01:08:33;;;;;;;1.63;1.30;;;20.30;99.90;;;;;;5053582;28;20272;-74
2023/09/21 01:11:04;;;;;;;1.77;1.45;;;20.30;99.90;;;;;;5053542;28;20193;-74
2023/09/21 01:13:31;;;;;;;2.25;1.20;;;20.30;99.90;;;;;;5051439;28;20185;-76
2023/09/21 01:16:02;;;;;;;1.67;1.38;;;20.30;99.90;;;;;;5052560;28;20188;-74
2023/09/21 01:18:28;;;;;;;1.83;1.40;;;20.20;99.90;;;;;;5052711;28;20447;-76
2023/09/21 01:21:00;;;;;;;1.70;1.23;;;20.20;99.90;;;;;;5053839;28;20269;-74
2023/09/21 01:23:49;;;;;;;2.13;1.40;;;20.20;99.90;;;;;;5036037;28;20193;-75
2023/09/21 01:26:19;;;;;;;1.75;1.35;;;20.20;99.90;;;;;;5052811;28;20239;-74
2023/09/21 01:28:51;;;;;;;2.10;1.30;;;20.20;99.90;;;;;;5053903;28;20197;-76
2023/09/21 01:31:18;;;;;;;1.95;1.23;;;20.20;99.90;;;;;;5053444;28;20188;-74
2023/09/21 01:33:44;;;;;;;2.22;1.45;;;20.20;99.90;;;;;;5052525;28;20189;-75
2023/09/21 01:36:15;;;;;;;1.90;1.48;;;20.20;99.90;;;;;;5054386;28;20181;-74
2023/09/21 01:38:44;;;;;;;1.75;1.38;;;20.20;99.90;;;;;;5054276;28;20201;-76
2023/09/21 01:41:13;;;;;;;1.80;1.38;;;20.20;99.90;;;;;;5052029;28;20201;-76
2023/09/21 01:43:42;;;;;;;1.70;1.38;;;20.20;99.90;;;;;;5053919;28;20181;-75
2023/09/21 01:46:08;;;;;;;1.85;1.20;;;20.10;99.90;;;;;;5054074;28;20174;-75
2023/09/21 01:48:34;;;;;;;1.58;1.00;;;20.10;99.90;;;;;;5053513;28;20205;-74
2023/09/21 01:51:02;;;;;;;3.17;1.20;;;20.10;99.90;;;;;;5076027;28;20188;-64
2023/09/21 01:53:28;;;;;;;1.50;1.30;;;20.10;99.90;;;;;;5072396;28;20181;-65
2023/09/21 01:55:53;;;;;;;2.90;1.40;;;20.10;99.90;;;;;;5055818;28;20173;-75
2023/09/21 01:58:23;;;;;;;2.35;1.20;;;20.10;99.90;;;;;;5059934;28;20209;-74
2023/09/21 02:00:50;;;;;;;1.27;1.00;;;20.10;99.90;;;;;;5071139;28;20169;-75
2023/09/21 02:03:22;;;;;;;4.20;1.40;;;20.10;99.90;;;;;;5039507;28;20181;-76
2023/09/21 02:05:50;;;;;;;2.00;1.20;;;20.10;99.90;;;;;;5054431;28;20172;-76
2023/09/21 02:08:19;;;;;;;1.58;1.10;;;20.20;99.90;;;;;;5055084;28;20177;-75
2023/09/21 02:10:49;;;;;;;1.65;1.20;;;20.10;99.90;;;;;;5054612;28;20172;-75
2023/09/21 02:13:18;;;;;;;2.08;1.40;;;20.20;99.90;;;;;;5052255;28;20174;-73
2023/09/21 02:15:44;;;;;;;1.77;1.25;;;20.20;99.90;;;;;;5052414;28;20193;-76
2023/09/21 02:18:10;;;;;;;1.42;1.13;;;20.20;99.90;;;;;;5051921;28;20197;-75
2023/09/21 02:20:49;;;;;;;1.50;1.10;;;20.20;99.90;;;;;;5052274;28;20212;-74
2023/09/21 02:23:15;;;;;;;2.28;1.27;;;20.20;99.90;;;;;;5050862;28;20201;-72
2023/09/21 02:25:46;;;;;;;1.40;1.20;;;20.20;99.90;;;;;;5052770;28;20184;-75
2023/09/21 02:28:12;;;;;;;2.03;1.20;;;20.20;99.90;;;;;;5052966;28;20241;-75
2023/09/21 02:30:47;;;;;;;1.75;1.40;;;20.20;99.90;;;;;;5051647;28;20212;-73
2023/09/21 02:33:17;;;;;;;2.03;1.30;;;20.30;99.90;;;;;;5053964;28;20185;-75
2023/09/21 02:35:47;;;;;;;1.85;1.30;;;20.30;99.90;;;;;;5052486;28;20212;-76
2023/09/21 02:38:13;;;;;;;2.03;1.30;;;20.30;99.90;;;;;;5052412;28;20256;-78
2023/09/21 02:40:40;;;;;;;1.90;1.30;;;20.30;99.90;;;;;;5052870;28;20271;-76
2023/09/21 02:43:09;;;;;;;2.20;1.50;;;20.30;99.90;;;;;;5053359;28;20177;-74
2023/09/21 02:45:37;;;;;;;2.00;1.15;;;20.30;99.90;;;;;;5055105;28;20181;-76
2023/09/21 02:48:06;;;;;;;1.60;1.30;;;20.40;99.90;;;;;;5053807;28;20211;-71
2023/09/21 02:50:35;;;;;;;1.77;1.30;;;20.40;99.90;;;;;;5052250;28;20243;-73
2023/09/21 02:53:06;;;;;;;3.50;1.27;;;20.40;99.90;;;;;;5051891;28;20254;-74
2023/09/21 02:55:33;;;;;;;1.80;1.20;;;20.40;99.90;;;;;;5052872;28;20184;-76
2023/09/21 02:58:21;;;;;;;2.03;1.30;;;20.40;99.90;;;;;;5051675;28;20242;-75
2023/09/21 03:00:49;;;;;;;1.30;1.20;;;20.40;99.90;;;;;;5066525;28;20177;-75
2023/09/21 03:03:22;;;;;;;2.60;1.40;;;20.30;99.90;;;;;;5052791;28;20173;-74
2023/09/21 03:05:52;;;;;;;2.58;1.23;;;20.30;99.90;;;;;;5051480;28;20238;-75
2023/09/21 03:08:21;;;;;;;2.40;1.52;;;20.30;99.90;;;;;;5052362;28;20184;-71
2023/09/21 03:10:52;;;;;;;1.40;1.20;;;20.30;99.90;;;;;;5051487;28;20280;-75
2023/09/21 03:13:19;;;;;;;3.03;1.30;;;20.30;99.90;;;;;;5051757;28;20180;-76
2023/09/21 03:15:50;;;;;;;2.05;1.50;;;20.20;99.90;;;;;;5052424;28;20181;-74
2023/09/21 03:18:19;;;;;;;1.65;1.20;;;20.20;99.90;;;;;;5051880;28;20217;-73
2023/09/21 03:20:45;;;;;;;1.52;1.27;;;20.20;99.90;;;;;;5051342;28;20177;-75
2023/09/21 03:23:12;;;;;;;1.63;1.30;;;20.20;99.90;;;;;;5033850;28;20169;-75
2023/09/21 03:25:43;;;;;;;1.70;1.30;;;20.10;99.90;;;;;;5051845;28;20201;-74
2023/09/21 03:28:13;;;;;;;2.65;1.25;;;20.10;99.90;;;;;;5051582;28;20481;-75
2023/09/21 03:30:47;;;;;;;1.90;1.60;;;20.10;99.90;;;;;;5050708;28;20192;-74
2023/09/21 03:33:15;;;;;;;1.75;1.30;;;20.10;99.90;;;;;;5051565;28;20263;-74
2023/09/21 03:35:41;;;;;;;2.65;1.40;;;20.00;99.90;;;;;;5052911;28;20181;-73
2023/09/21 03:38:12;;;;;;;2.10;1.40;;;20.00;99.90;;;;;;5049420;28;20215;-70
2023/09/21 03:40:41;;;;;;;2.28;1.45;;;20.00;99.90;;;;;;5052704;28;20264;-73
2023/09/21 03:43:10;;;;;;;2.03;1.50;;;20.00;99.90;;;;;;5051276;28;20289;-75
2023/09/21 03:45:37;;;;;;;2.22;1.40;;;19.90;99.90;;;;;;5053728;28;20278;-73
2023/09/21 03:48:06;;;;;;;2.05;1.10;;;19.90;99.90;;;;;;5041348;28;20304;-75
2023/09/21 03:50:31;;;;;;;2.17;1.30;;;19.90;99.90;;;;;;5052351;28;20200;-72
2023/09/21 03:52:59;;;;;;;1.33;1.17;;;19.90;99.90;;;;;;5052764;28;20811;-74
2023/09/21 03:55:27;;;;;;;1.65;1.30;;;19.90;99.90;;;;;;5053166;28;20200;-75
2023/09/21 03:57:59;;;;;;;2.92;1.50;;;19.90;99.90;;;;;;5039136;28;20208;-74
2023/09/21 04:02:50;;;;;;;1.98;1.52;;;19.90;99.90;;;;;;5052522;28;20208;-71
2023/09/21 04:05:19;;;;;;;1.73;1.23;;;19.90;99.90;;;;;;5051131;28;20178;-76
2023/09/21 04:07:48;;;;;;;2.70;1.20;;;19.90;99.90;;;;;;5051623;28;20181;-74
2023/09/21 04:10:16;;;;;;;3.42;1.20;;;19.90;99.90;;;;;;5038162;28;20201;-74
2023/09/21 04:12:43;;;;;;;2.45;1.42;;;19.80;99.90;;;;;;5054816;28;20264;-70
2023/09/21 04:15:10;;;;;;;1.92;1.55;;;19.80;99.90;;;;;;5072053;28;20222;-72
2023/09/21 04:17:35;;;;;;;2.28;1.20;;;19.80;99.90;;;;;;5051842;28;20216;-75
2023/09/21 04:20:10;;;;;;;2.38;1.40;;;19.90;99.90;;;;;;5055653;28;20323;-75
2023/09/21 04:22:42;;;;;;;1.88;1.27;;;19.80;99.90;;;;;;5055146;28;20228;-73
2023/09/21 04:25:14;;;;;;;2.30;1.30;;;19.80;99.90;;;;;;5054530;28;20178;-73
2023/09/21 04:27:45;;;;;;;1.52;1.20;;;19.80;99.90;;;;;;5055001;28;20234;-73
2023/09/21 04:30:17;;;;;;;1.20;1.00;;;19.80;99.90;;;;;;5054809;28;20192;-74
2023/09/21 04:32:46;;;;;;;1.52;1.30;;;19.80;99.90;;;;;;5056331;28;20200;-72
2023/09/21 04:35:14;;;;;;;1.52;1.20;;;19.80;99.90;;;;;;5056645;28;20181;-73
2023/09/21 04:37:43;;;;;;;2.83;1.50;;;19.80;99.90;;;;;;5055314;28;20238;-75
2023/09/21 04:40:12;;;;;;;2.13;1.35;;;19.80;99.90;;;;;;5055543;28;20189;-74
2023/09/21 04:42:41;;;;;;;1.92;1.40;;;19.80;99.90;;;;;;5054073;28;20184;-72
2023/09/21 04:45:11;;;;;;;1.58;1.35;;;19.80;99.90;;;;;;5056167;28;20197;-72
2023/09/21 04:47:41;;;;;;;1.48;1.20;;;19.80;99.90;;;;;;5054887;28;20184;-74
2023/09/21 04:50:13;;;;;;;1.95;1.50;;;19.80;99.90;;;;;;5054529;28;20213;-73
2023/09/21 04:52:39;;;;;;;1.60;1.20;;;19.80;99.90;;;;;;5056659;28;20275;-77
2023/09/21 04:55:08;;;;;;;1.63;1.27;;;19.80;99.90;;;;;;5054615;28;20181;-76
2023/09/21 04:57:37;;;;;;;1.65;1.30;;;19.80;99.90;;;;;;5055038;28;20201;-76
2023/09/21 05:00:10;;;;;;;2.33;1.48;;;19.80;99.90;;;;;;5036993;28;20173;-76
2023/09/21 05:02:36;;;;;;;2.38;1.55;;;19.80;99.90;;;;;;5054173;28;20193;-75
2023/09/21 05:05:07;;;;;;;4.70;1.88;;;19.80;99.90;;;;;;5054236;28;20181;-72
2023/09/21 05:07:35;;;;;;;2.30;1.60;;;19.80;99.90;;;;;;5053162;28;20185;-75
2023/09/21 05:10:06;;;;;;;2.92;1.60;;;19.70;99.90;;;;;;5055139;28;20184;-75
2023/09/21 05:12:37;;;;;;;2.15;1.38;;;19.70;99.90;;;;;;5052063;28;20188;-75
2023/09/21 05:15:08;;;;;;;2.00;1.60;;;19.70;99.90;;;;;;5070077;28;20185;-71
2023/09/21 05:17:38;;;;;;;5.63;1.70;;;19.70;99.90;;;;;;5052266;28;20205;-73
2023/09/21 05:20:15;;;;;;;2.03;1.65;;;19.70;99.90;;;;;;5053067;28;20177;-71
2023/09/21 05:22:43;;;;;;;1.60;1.30;;;19.70;99.90;;;;;;5055863;28;20192;-73
2023/09/21 05:25:09;;;;;;;1.52;1.30;;;19.70;99.90;;;;;;5054222;28;20251;-73
2023/09/21 05:27:36;;;;;;;2.38;1.30;;;19.70;99.90;;;;;;5052986;28;20173;-73
2023/09/21 05:30:05;;;;;;;2.08;1.50;;;19.70;99.90;;;;;;5065505;28;20222;-71
2023/09/21 05:32:34;;;;;;;2.78;1.60;;;19.70;99.90;;;;;;5057338;28;20185;-71
2023/09/21 05:35:02;;;;;;;1.80;1.30;;;19.70;99.90;;;;;;5052902;28;20218;-76
2023/09/21 05:37:30;;;;;;;2.58;1.35;;;19.70;99.90;;;;;;5051686;28;20211;-73
2023/09/21 05:40:00;;;;;;;2.20;1.60;;;19.70;99.90;;;;;;5037782;28;20192;-74
2023/09/21 05:42:26;;;;;;;1.80;1.20;;;19.70;99.90;;;;;;5053144;28;20197;-75
2023/09/21 05:44:52;;;;;;;2.58;1.38;;;19.70;99.90;;;;;;5057655;28;20216;-75
2023/09/21 05:47:17;;;;;;;2.80;1.40;;;19.80;99.90;;;;;;5053089;28;20242;-72
2023/09/21 05:49:43;;;;;;;1.85;1.40;;;19.80;99.90;;;;;;5052722;28;20200;-75
2023/09/21 05:52:12;;;;;;;1.60;1.20;;;19.80;99.90;;;;;;5052217;28;20284;-76
2023/09/21 05:54:42;;;;;;;1.73;1.35;;;19.80;99.90;;;;;;5053815;28;20181;-76
2023/09/21 05:57:08;;;;;;;2.40;1.45;;;19.80;99.90;;;;;;5053651;28;20193;-75
2023/09/21 05:59:34;;;;;;;1.95;1.50;;;19.80;99.90;;;;;;5052210;28;20205;-72
2023/09/21 06:02:00;;;;;;;1.40;1.30;;;19.90;99.90;;;;;;5052147;28;20181;-76
2023/09/21 06:04:26;;;;;;;2.83;1.30;;;19.90;99.90;;;;;;5052430;28;20192;-75
2023/09/21 06:06:55;;;;;;;2.35;1.58;;;19.90;99.90;;;;;;5052691;28;20201;-75
2023/09/21 06:09:22;;;;;;;1.50;1.25;;;20.00;99.90;;;;;;5052970;28;20179;-77
2023/09/21 06:11:50;;;;;;;2.20;1.50;;;20.00;99.90;;;;;;5037288;28;20318;-73
2023/09/21 06:14:20;;;;;;;3.08;1.38;;;20.00;99.90;;;;;;5037524;28;20203;-76
2023/09/21 06:16:46;;;;;;;3.50;1.50;;;20.10;99.90;;;;;;5054151;28;20181;-75
2023/09/21 06:19:12;;;;;;;2.15;1.30;;;20.10;99.90;;;;;;5054822;28;20197;-75
2023/09/21 06:21:48;;;;;;;1.80;1.38;;;20.10;99.90;;;;;;5037576;28;20206;-73
2023/09/21 06:24:17;;;;;;;1.83;1.35;;;20.20;99.90;;;;;;5054840;28;20173;-75
2023/09/21 06:26:45;;;;;;;2.80;1.33;;;20.20;99.90;;;;;;5055215;28;20177;-78
2023/09/21 06:29:12;;;;;;;1.98;1.20;;;20.30;99.90;;;;;;5053560;28;20205;-75
2023/09/21 06:31:37;;;;;;;2.10;1.45;;;20.30;99.90;;;;;;5040526;28;20253;-77
2023/09/21 06:34:05;;;;;;;1.83;1.35;;;20.30;99.90;;;;;;5053659;28;20213;-75
2023/09/21 06:36:33;;;;;;;3.00;1.40;;;20.40;99.90;;;;;;5048762;28;20208;-77
2023/09/21 06:38:58;;;;;;;1.95;1.67;;;20.50;99.90;;;;;;5069803;28;20296;-73
2023/09/21 06:41:25;;;;;;;2.47;1.50;;;20.50;99.90;;;;;;5053362;28;20273;-72
2023/09/21 06:43:51;;;;;;;4.10;2.13;;;20.50;99.90;;;;;;5051898;28;20197;-76
2023/09/21 06:46:18;;;;;;;2.63;1.80;;;20.60;99.90;;;;;;5053846;28;20227;-76
2023/09/21 06:48:44;;;;;;;2.67;1.83;;;20.60;99.90;;;;;;5040530;28;20177;-76
2023/09/21 06:51:09;;;;;;;2.65;1.90;;;20.70;99.90;;;;;;5042918;28;20208;-74
2023/09/21 06:53:36;;;;;;;4.80;2.10;;;20.80;99.90;;;;;;5053003;28;20173;-75
2023/09/21 06:56:05;;;;;;;1.90;1.70;;;20.80;99.90;;;;;;5043521;28;20256;-77
2023/09/21 06:58:31;;;;;;;1.90;1.60;;;20.90;99.90;;;;;;5054439;28;20214;-75
2023/09/21 07:01:00;;;;;;;2.08;1.50;;;20.90;99.90;;;;;;5053532;28;20178;-71
2023/09/21 07:03:28;;;;;;;2.13;1.40;;;21.00;99.90;;;;;;5050113;28;20181;-74
2023/09/21 07:05:54;;;;;;;2.28;1.63;;;21.00;99.90;;;;;;5052937;28;20197;-73
2023/09/21 07:08:20;;;;;;;2.38;1.40;;;21.00;99.90;;;;;;5036258;28;20181;-72
2023/09/21 07:10:48;;;;;;;2.42;1.40;;;21.10;99.90;;;;;;5053898;28;20188;-77
2023/09/21 07:13:15;;;;;;;2.33;1.40;;;21.10;99.90;;;;;;5036853;28;20201;-77
2023/09/21 07:15:45;;;;;;;1.80;1.35;;;21.20;99.90;;;;;;5053797;28;20177;-74
2023/09/21 07:18:11;;;;;;;2.15;1.42;;;21.20;99.90;;;;;;5053011;28;20189;-75
2023/09/21 07:20:37;;;;;;;2.72;1.42;;;21.30;99.90;;;;;;5053662;28;20334;-76
2023/09/21 07:23:03;;;;;;;3.22;1.20;;;21.30;99.90;;;;;;5060655;28;20239;-78
2023/09/21 07:25:29;;;;;;;3.33;1.52;;;21.30;99.90;;;;;;5061141;28;20180;-74
2023/09/21 07:27:58;;;;;;;1.52;1.20;;;21.40;99.90;;;;;;5036466;28;20269;-76
2023/09/21 07:30:25;;;;;;;1.70;1.30;;;21.40;99.90;;;;;;5036826;28;20260;-76
2023/09/21 07:32:55;;;;;;;2.50;1.35;;;21.40;99.90;;;;;;5052824;28;20174;-76
2023/09/21 07:35:23;;;;;;;2.40;1.30;;;21.40;99.90;;;;;;5053652;28;20300;-76
2023/09/21 07:37:50;;;;;;;1.85;1.23;;;21.40;99.90;;;;;;5051482;28;20200;-75
2023/09/21 07:40:16;;;;;;;2.05;1.45;;;21.40;99.90;;;;;;5053172;28;20185;-74
2023/09/21 07:42:48;;;;;;;1.83;1.40;;;21.40;99.90;;;;;;5055043;28;20206;-73
2023/09/21 07:45:16;;;;;;;2.65;1.70;;;21.40;99.90;;;;;;5056840;28;20182;-75
2023/09/21 07:47:45;;;;;;;3.75;1.60;;;21.40;99.90;;;;;;5056675;28;20344;-76
2023/09/21 07:50:11;;;;;;;3.25;1.63;;;21.40;99.90;;;;;;5059915;28;20208;-76
2023/09/21 07:52:37;;;;;;;2.15;1.42;;;21.40;99.90;;;;;;5076717;28;20193;-71
2023/09/21 07:55:04;;;;;;;1.85;1.40;;;21.50;99.90;;;;;;5073777;28;20182;-74
2023/09/21 07:57:40;;;;;;;1.95;1.48;;;21.50;99.90;;;;;;5065417;28;20220;-70
2023/09/21 08:00:14;;;;;;;1.98;1.10;;;21.50;99.90;;;;;;5072436;28;20195;-71
2023/09/21 08:02:39;;;;;;;1.60;1.20;;;21.60;99.90;;;;;;5072595;28;20189;-77
2023/09/21 08:05:06;;;;;;;2.03;1.38;;;21.60;99.90;;;;;;5062390;28;20354;-76
2023/09/21 08:07:33;;;;;;;1.55;1.30;;;21.70;99.90;;;;;;5056381;28;20192;-76
2023/09/21 08:10:01;;;;;;;1.90;1.30;;;21.70;99.90;;;;;;5056583;28;20429;-77
2023/09/21 08:12:27;;;;;;;2.38;1.38;;;21.80;99.90;;;;;;5070227;28;20288;-76
2023/09/21 08:14:53;;;;;;;2.92;1.60;;;21.90;99.90;;;;;;5039239;28;20193;-76
2023/09/21 08:17:19;;;;;;;2.50;1.58;;;21.90;99.90;;;;;;5056771;28;20280;-71
2023/09/21 08:19:46;;;;;;;1.92;1.23;;;22.00;99.90;;;;;;5059644;28;20285;-77
2023/09/21 08:22:14;;;;;;;1.33;1.23;;;22.00;99.90;;;;;;5056874;28;20173;-75
2023/09/21 08:24:41;;;;;;;1.70;1.10;;;22.10;99.90;;;;;;5056056;28;20169;-74
2023/09/21 08:27:08;;;;;;;1.85;1.52;;;22.10;99.90;;;;;;5055822;28;20197;-75
2023/09/21 08:29:36;;;;;;;2.65;1.50;;;22.10;99.90;;;;;;5067474;28;20207;-75
2023/09/21 08:32:07;;;;;;;2.53;1.52;;;22.10;99.90;;;;;;5070926;28;20205;-73
2023/09/21 08:34:35;;;;;;;2.75;1.45;;;22.20;99.90;;;;;;5056053;28;20387;-73
2023/09/21 08:37:04;;;;;;;2.75;1.60;;;22.20;99.90;;;;;;5055819;28;20208;-75
2023/09/21 08:39:32;;;;;;;2.13;1.60;;;22.20;99.90;;;;;;5055571;28;20201;-74
2023/09/21 08:42:03;;;;;;;2.83;1.20;;;22.20;99.90;;;;;;5055495;28;20198;-76
2023/09/21 08:44:33;;;;;;;2.63;1.30;;;22.20;99.90;;;;;;5029909;28;20184;-76
2023/09/21 08:47:01;;;;;;;4.53;1.48;;;22.30;99.90;;;;;;5037459;28;20231;-77
2023/09/21 08:49:28;;;;;;;4.95;1.58;;;22.30;99.90;;;;;;5038491;28;20212;-74
2023/09/21 08:52:02;;;;;;;1.40;1.20;;;22.30;99.90;;;;;;5053956;28;20185;-74
2023/09/21 08:54:28;;;;;;;2.63;1.08;;;22.40;99.90;;;;;;5056817;28;20168;-76
2023/09/21 08:56:55;;;;;;;1.60;1.08;;;22.40;99.90;;;;;;5055406;28;20205;-75
2023/09/21 08:59:23;;;;;;;2.22;1.30;;;22.40;99.90;;;;;;5055913;28;20216;-75
2023/09/21 09:01:55;;;;;;;1.70;1.30;;;22.50;99.90;;;;;;5055047;28;20270;-75
2023/09/21 09:04:23;;;;;;;1.30;1.20;;;22.50;99.90;;;;;;5055068;28;20211;-68
2023/09/21 09:06:51;;;;;;;1.88;1.40;;;22.50;99.90;;;;;;5044631;28;20187;-74
2023/09/21 09:09:22;;;;;;;3.78;1.27;;;22.60;99.90;;;;;;5055049;28;20284;-75
2023/09/21 09:11:50;;;;;;;3.13;2.10;;;22.60;99.90;;;;;;5038171;28;20203;-75
2023/09/21 09:14:18;;;;;;;2.33;1.48;;;22.70;99.90;;;;;;5054311;28;20186;-74
2023/09/21 09:16:44;;;;;;;1.73;1.35;;;22.70;99.90;;;;;;5046415;28;20182;-76
2023/09/21 09:19:14;;;;;;;5.75;1.50;;;22.80;99.90;;;;;;5054759;28;20282;-76
2023/09/21 09:21:44;;;;;;;3.10;1.70;;;22.80;99.90;;;;;;5053033;28;20178;-74
2023/09/21 09:24:12;;;;;;;2.92;1.60;;;22.80;99.90;;;;;;5054560;28;20264;-75
2023/09/21 09:26:38;;;;;;;3.83;1.40;;;22.80;99.90;;;;;;5055890;28;20303;-77
2023/09/21 09:29:08;;;;;;;3.50;1.50;;;22.90;99.90;;;;;;5054131;28;20185;-75
2023/09/21 09:31:38;;;;;;;1.88;1.40;;;22.80;99.90;;;;;;5038019;28;20253;-75
2023/09/21 09:34:06;;;;;;;2.60;1.30;;;22.80;99.90;;;;;;5053930;28;20291;-76
2023/09/21 09:36:32;;;;;;;1.42;1.23;;;22.90;99.90;;;;;;5039315;28;20264;-75
2023/09/21 09:39:00;;;;;;;3.55;1.30;;;22.90;99.90;;;;;;5054294;28;20295;-75
2023/09/21 09:41:27;;;;;;;2.17;1.30;;;22.90;99.90;;;;;;5037526;28;20193;-75
2023/09/21 09:43:56;;;;;;;1.95;1.40;;;23.00;99.90;;;;;;5050626;28;20255;-74
2023/09/21 09:46:25;;;;;;;2.40;1.60;;;23.00;99.90;;;;;;5054181;28;20180;-76
2023/09/21 09:48:56;;;;;;;3.03;1.50;;;23.00;99.90;;;;;;5052985;28;20288;-74
2023/09/21 09:51:27;;;;;;;3.10;1.60;;;23.00;99.90;;;;;;5071624;28;20275;-74
2023/09/21 09:53:59;;;;;;;1.83;1.40;;;23.00;99.90;;;;;;5055310;28;20185;-75
2023/09/21 09:56:26;;;;;;;1.63;1.20;;;23.10;99.90;;;;;;5035785;28;20229;-74
2023/09/21 09:58:57;;;;;;;3.30;1.63;;;23.10;99.90;;;;;;5054419;28;20197;-77
2023/09/21 10:01:26;;;;;;;2.72;1.30;;;23.10;99.90;;;;;;5037289;28;20178;-75
2023/09/21 10:03:54;;;;;;;2.38;1.33;;;23.10;99.90;;;;;;5070810;28;20212;-78
2023/09/21 10:06:22;;;;;;;3.00;1.40;;;23.20;99.90;;;;;;5056253;28;20178;-76
2023/09/21 10:08:49;;;;;;;2.30;1.33;;;23.20;99.90;;;;;;5053694;28;20268;-74
2023/09/21 10:11:17;;;;;;;2.75;1.55;;;23.30;99.90;;;;;;5044467;28;20260;-75
2023/09/21 10:13:54;;;;;;;2.80;1.40;;;23.40;99.90;;;;;;5070596;28;20181;-75
2023/09/21 10:16:27;;;;;;;2.97;1.40;;;23.50;99.90;;;;;;5050924;28;20181;-75
2023/09/21 10:18:58;;;;;;;3.00;1.33;;;23.50;99.90;;;;;;5038726;28;20220;-75
2023/09/21 10:21:38;;;;;;;2.00;1.20;;;23.60;99.90;;;;;;5053972;28;20169;-77
2023/09/21 10:24:13;;;;;;;1.50;1.25;;;23.60;99.90;;;;;;5054059;28;20427;-74
2023/09/21 10:26:44;;;;;;;1.67;1.42;;;23.60;99.90;;;;;;5053114;28;20179;-76
2023/09/21 10:29:12;;;;;;;3.20;1.65;;;23.70;99.90;;;;;;5069251;28;20188;-74
2023/09/21 10:31:55;;;;;;;1.98;1.40;;;23.70;99.90;;;;;;5060692;28;20178;-75
2023/09/21 10:34:24;;;;;;;2.83;1.50;;;23.80;99.90;;;;;;5053085;28;20204;-75
2023/09/21 10:37:15;;;;;;;1.30;1.05;;;23.90;99.90;;;;;;5053841;28;20184;-77
2023/09/21 10:39:40;;;;;;;2.03;1.23;;;23.90;99.90;;;;;;5053526;28;20200;-76
2023/09/21 10:42:06;;;;;;;2.25;1.40;;;23.90;99.90;;;;;;5058085;28;20182;-76
2023/09/21 10:44:58;;;;;;;2.10;1.38;;;23.90;99.90;;;;;;5065656;28;20200;-76
2023/09/21 10:47:29;;;;;;;1.77;1.23;;;23.90;99.90;;;;;;5070001;28;20191;-75
2023/09/21 10:50:02;;;;;;;1.70;1.30;;;23.90;99.90;;;;;;5054307;28;20211;-76
2023/09/21 10:52:31;;;;;;;2.20;1.40;;;23.90;99.90;;;;;;5036214;28;20169;-77
2023/09/21 10:54:57;;;;;;;1.73;1.30;;;23.90;99.90;;;;;;5052531;28;20204;-77
2023/09/21 10:57:28;;;;;;;3.67;1.25;;;24.00;99.90;;;;;;5054888;28;20178;-77
2023/09/21 11:00:07;;;;;;;1.83;1.25;;;24.00;99.90;;;;;;5036339;28;20208;-75
2023/09/21 11:02:38;;;;;;;2.70;1.58;;;24.10;99.90;;;;;;5051458;28;20207;-77
2023/09/21 11:05:06;;;;;;;2.40;1.35;;;24.10;99.90;;;;;;5056159;28;20195;-76
2023/09/21 11:07:35;;;;;;;1.60;1.38;;;24.10;99.90;;;;;;5060356;28;20200;-71
2023/09/21 11:10:06;;;;;;;2.63;1.40;;;24.10;99.90;;;;;;5052869;28;20197;-78
2023/09/21 11:12:32;;;;;;;1.70;1.40;;;24.20;99.90;;;;;;5050102;28;20203;-71
2023/09/21 11:14:58;;;;;;;2.10;1.33;;;24.20;99.90;;;;;;5053631;28;20181;-76
2023/09/21 11:17:24;;;;;;;2.38;1.50;;;24.30;99.90;;;;;;5036960;28;20600;-75
2023/09/21 11:19:50;;;;;;;2.55;1.60;;;24.30;99.90;;;;;;5057244;28;20189;-76
2023/09/21 11:22:18;;;;;;;2.58;1.60;;;24.30;99.90;;;;;;5073750;28;20358;-74
2023/09/21 11:24:45;;;;;;;2.95;1.50;;;24.30;99.90;;;;;;5056464;28;20259;-74
2023/09/21 11:27:14;;;;;;;2.50;1.67;;;24.30;99.90;;;;;;5040836;28;20169;-77
2023/09/21 11:29:42;;;;;;;2.88;1.65;;;24.30;99.90;;;;;;5041208;28;20190;-77
2023/09/21 11:32:12;;;;;;;1.63;1.33;;;24.30;99.90;;;;;;5039925;28;20197;-77
2023/09/21 11:34:40;;;;;;;1.92;1.30;;;24.30;99.90;;;;;;5060941;28;20172;-74
2023/09/21 11:37:10;;;;;;;2.38;1.25;;;24.30;99.90;;;;;;5040027;28;20219;-74
2023/09/21 11:39:37;;;;;;;2.00;1.50;;;24.30;99.90;;;;;;5055324;28;20217;-74
2023/09/21 11:42:06;;;;;;;1.50;1.17;;;24.30;99.90;;;;;;5062486;28;20182;-75
2023/09/21 11:44:42;;;;;;;4.03;1.52;;;24.30;99.90;;;;;;5039515;28;20169;-75
2023/09/21 11:47:11;;;;;;;2.15;1.30;;;24.30;99.90;;;;;;5057169;28;20205;-77
2023/09/21 11:49:39;;;;;;;2.45;1.55;;;24.30;99.90;;;;;;5042665;28;20260;-74
2023/09/21 11:52:04;;;;;;;1.98;1.45;;;24.20;99.90;;;;;;5060964;28;20189;-77
2023/09/21 11:54:34;;;;;;;2.00;1.70;;;24.20;99.90;;;;;;5057061;28;20205;-75
2023/09/21 11:57:03;;;;;;;2.65;1.65;;;24.20;99.90;;;;;;5057979;28;20177;-77
2023/09/21 11:59:32;;;;;;;3.05;1.80;;;24.10;99.90;;;;;;5041784;28;20209;-77
2023/09/21 12:02:03;;;;;;;2.00;1.48;;;24.10;99.90;;;;;;5055901;28;20197;-77
2023/09/21 12:04:29;;;;;;;2.55;1.50;;;24.00;99.90;;;;;;5056577;28;20177;-76
2023/09/21 12:06:55;;;;;;;2.08;1.40;;;24.00;99.90;;;;;;5061916;28;20186;-75
2023/09/21 12:09:21;;;;;;;1.80;1.20;;;23.90;99.90;;;;;;5054932;28;20202;-76
2023/09/21 12:11:54;;;;;;;3.20;1.45;;;23.90;99.90;;;;;;5043045;28;20251;-74
2023/09/21 12:14:24;;;;;;;2.38;1.50;;;23.90;99.90;;;;;;5048067;28;20173;-75
2023/09/21 12:16:53;;;;;;;4.00;1.70;;;23.90;99.90;;;;;;5056205;28;20220;-76
2023/09/21 12:19:19;;;;;;;3.25;1.55;;;23.90;99.90;;;;;;5046581;28;20201;-73
2023/09/21 12:21:49;;;;;;;2.10;1.48;;;23.80;99.90;;;;;;5056757;28;20173;-76
2023/09/21 12:24:20;;;;;;;2.83;1.30;;;23.80;99.90;;;;;;5038998;28;20255;-74
2023/09/21 12:26:45;;;;;;;2.30;1.58;;;23.90;99.90;;;;;;5045985;28;20173;-75
2023/09/21 12:29:11;;;;;;;3.03;1.52;;;23.80;99.90;;;;;;5052486;28;20185;-76
2023/09/21 12:31:37;;;;;;;4.00;1.77;;;23.80;99.90;;;;;;5035899;28;20197;-76
2023/09/21 12:34:03;;;;;;;3.22;1.90;;;23.80;99.90;;;;;;5065823;28;20181;-73
2023/09/21 12:36:29;;;;;;;4.68;1.70;;;23.70;99.90;;;;;;5066275;28;20268;-73
2023/09/21 12:38:54;;;;;;;2.35;1.45;;;23.70;99.90;;;;;;5055985;28;20225;-75
2023/09/21 12:41:23;;;;;;;2.90;1.52;;;23.70;99.90;;;;;;5054527;28;20280;-74
2023/09/21 12:43:48;;;;;;;2.28;1.55;;;23.60;99.90;;;;;;5056032;28;20480;-74
2023/09/21 12:46:19;;;;;;;2.58;1.67;;;23.60;99.90;;;;;;5053831;28;20201;-74
2023/09/21 12:48:45;;;;;;;3.95;1.92;;;23.60;99.90;;;;;;5056232;28;20228;-75
2023/09/21 12:51:11;;;;;;;2.60;1.85;;;23.60;99.90;;;;;;5054800;28;20197;-75
2023/09/21 12:53:36;;;;;;;3.20;1.40;;;23.60;99.90;;;;;;5071318;28;20280;-75
2023/09/21 12:56:04;;;;;;;2.08;1.48;;;23.60;99.90;;;;;;5055964;28;20272;-75
2023/09/21 12:58:33;;;;;;;1.92;1.63;;;23.60;99.90;;;;;;5044520;28;20201;-75